sensor_id;sensor_type;location;lat;lon;timestamp;temperature;humidity
23813;DHT22;12087;45.190;5.688;2022-07-31T00:02:27;24.10;61.70
23813;DHT22;12087;45.190;5.688;2022-07-31T00:08:03;24.00;62.80
23813;DHT22;12087;45.190;5.688;2022-07-31T00:13:46;24.00;63.20
23813;DHT22;12087;45.190;5.688;2022-07-31T00:24:46;23.80;63.70
23813;DHT22;12087;45.190;5.688;2022-07-31T00:30:32;23.60;64.80
23813;DHT22;12087;45.190;5.688;2022-07-31T00:36:02;23.50;65.70
23813;DHT22;12087;45.190;5.688;2022-07-31T00:42:05;23.60;64.40
23813;DHT22;12087;45.190;5.688;2022-07-31T00:47:46;23.60;63.80
23813;DHT22;12087;45.190;5.688;2022-07-31T00:53:46;23.50;66.20
23813;DHT22;12087;45.190;5.688;2022-07-31T00:59:23;23.40;65.40
23813;DHT22;12087;45.190;5.688;2022-07-31T01:04:56;23.30;66.20
23813;DHT22;12087;45.190;5.688;2022-07-31T01:10:47;23.20;67.60
23813;DHT22;12087;45.190;5.688;2022-07-31T01:16:42;23.10;67.30
23813;DHT22;12087;45.190;5.688;2022-07-31T01:23:04;23.10;67.20
23813;DHT22;12087;45.190;5.688;2022-07-31T01:28:52;23.10;68.20
23813;DHT22;12087;45.190;5.688;2022-07-31T01:34:23;22.90;68.00
23813;DHT22;12087;45.190;5.688;2022-07-31T01:39:50;22.80;67.90
23813;DHT22;12087;45.190;5.688;2022-07-31T01:45:32;22.80;69.00
23813;DHT22;12087;45.190;5.688;2022-07-31T01:51:16;22.60;69.80
23813;DHT22;12087;45.190;5.688;2022-07-31T01:57:08;22.50;71.10
23813;DHT22;12087;45.190;5.688;2022-07-31T02:03:28;22.50;71.60
23813;DHT22;12087;45.190;5.688;2022-07-31T02:08:53;22.40;71.60
23813;DHT22;12087;45.190;5.688;2022-07-31T02:14:16;22.30;72.20
23813;DHT22;12087;45.190;5.688;2022-07-31T02:19:55;22.20;73.30
23813;DHT22;12087;45.190;5.688;2022-07-31T02:31:39;22.00;73.30
23813;DHT22;12087;45.190;5.688;2022-07-31T02:37:25;22.10;74.10
23813;DHT22;12087;45.190;5.688;2022-07-31T02:49:08;22.00;73.50
23813;DHT22;12087;45.190;5.688;2022-07-31T02:54:42;22.00;73.40
23813;DHT22;12087;45.190;5.688;2022-07-31T03:00:14;21.90;73.20
23813;DHT22;12087;45.190;5.688;2022-07-31T03:05:42;21.90;73.50
23813;DHT22;12087;45.190;5.688;2022-07-31T03:11:06;21.90;73.70
23813;DHT22;12087;45.190;5.688;2022-07-31T03:16:29;21.80;74.00
23813;DHT22;12087;45.190;5.688;2022-07-31T03:21:52;21.70;74.20
23813;DHT22;12087;45.190;5.688;2022-07-31T03:27:17;21.70;74.10
23813;DHT22;12087;45.190;5.688;2022-07-31T03:32:39;21.60;74.50
23813;DHT22;12087;45.190;5.688;2022-07-31T03:38:03;21.60;74.70
23813;DHT22;12087;45.190;5.688;2022-07-31T03:43:28;21.60;74.40
23813;DHT22;12087;45.190;5.688;2022-07-31T03:48:51;21.50;74.50
23813;DHT22;12087;45.190;5.688;2022-07-31T03:54:13;21.50;74.50
23813;DHT22;12087;45.190;5.688;2022-07-31T03:59:37;21.40;74.70
23813;DHT22;12087;45.190;5.688;2022-07-31T04:05:00;21.50;74.70
23813;DHT22;12087;45.190;5.688;2022-07-31T04:10:22;21.40;74.90
23813;DHT22;12087;45.190;5.688;2022-07-31T04:15:46;21.30;75.30
23813;DHT22;12087;45.190;5.688;2022-07-31T04:21:08;21.20;76.50
23813;DHT22;12087;45.190;5.688;2022-07-31T04:26:30;21.30;75.80
23813;DHT22;12087;45.190;5.688;2022-07-31T04:31:54;21.20;75.60
23813;DHT22;12087;45.190;5.688;2022-07-31T04:37:16;21.20;76.50
23813;DHT22;12087;45.190;5.688;2022-07-31T04:42:39;21.10;76.50
23813;DHT22;12087;45.190;5.688;2022-07-31T04:48:03;21.10;76.70
23813;DHT22;12087;45.190;5.688;2022-07-31T04:53:25;21.00;77.00
23813;DHT22;12087;45.190;5.688;2022-07-31T04:58:47;21.00;77.20
23813;DHT22;12087;45.190;5.688;2022-07-31T05:04:11;21.00;77.10
23813;DHT22;12087;45.190;5.688;2022-07-31T05:09:33;21.10;77.50
23813;DHT22;12087;45.190;5.688;2022-07-31T05:14:56;21.10;77.50
23813;DHT22;12087;45.190;5.688;2022-07-31T05:20:19;21.00;77.70
23813;DHT22;12087;45.190;5.688;2022-07-31T05:25:42;21.00;77.60
23813;DHT22;12087;45.190;5.688;2022-07-31T05:31:06;21.00;77.20
23813;DHT22;12087;45.190;5.688;2022-07-31T05:36:30;21.10;77.40
23813;DHT22;12087;45.190;5.688;2022-07-31T05:41:52;21.20;77.00
23813;DHT22;12087;45.190;5.688;2022-07-31T05:47:14;21.20;76.60
23813;DHT22;12087;45.190;5.688;2022-07-31T05:52:38;21.30;76.80
23813;DHT22;12087;45.190;5.688;2022-07-31T05:58:00;21.30;77.00
23813;DHT22;12087;45.190;5.688;2022-07-31T06:03:23;21.40;76.70
23813;DHT22;12087;45.190;5.688;2022-07-31T06:08:49;21.50;75.90
23813;DHT22;12087;45.190;5.688;2022-07-31T06:14:11;21.60;76.10
23813;DHT22;12087;45.190;5.688;2022-07-31T06:19:33;21.70;75.70
23813;DHT22;12087;45.190;5.688;2022-07-31T06:24:57;21.70;75.10
23813;DHT22;12087;45.190;5.688;2022-07-31T06:30:19;21.80;75.20
23813;DHT22;12087;45.190;5.688;2022-07-31T06:35:41;21.90;74.70
23813;DHT22;12087;45.190;5.688;2022-07-31T06:41:05;22.00;74.70
23813;DHT22;12087;45.190;5.688;2022-07-31T06:46:27;22.00;74.20
23813;DHT22;12087;45.190;5.688;2022-07-31T06:51:50;22.10;73.90
23813;DHT22;12087;45.190;5.688;2022-07-31T06:57:14;22.20;74.10
23813;DHT22;12087;45.190;5.688;2022-07-31T07:02:36;22.30;74.50
23813;DHT22;12087;45.190;5.688;2022-07-31T07:07:58;22.40;73.30
23813;DHT22;12087;45.190;5.688;2022-07-31T07:13:22;22.50;72.90
23813;DHT22;12087;45.190;5.688;2022-07-31T07:18:46;22.60;72.90
23813;DHT22;12087;45.190;5.688;2022-07-31T07:24:08;22.70;71.90
23813;DHT22;12087;45.190;5.688;2022-07-31T07:29:31;22.90;70.80
23813;DHT22;12087;45.190;5.688;2022-07-31T07:34:54;22.90;70.60
23813;DHT22;12087;45.190;5.688;2022-07-31T07:40:16;23.10;71.90
23813;DHT22;12087;45.190;5.688;2022-07-31T07:45:40;23.10;71.60
23813;DHT22;12087;45.190;5.688;2022-07-31T07:51:02;23.30;69.30
23813;DHT22;12087;45.190;5.688;2022-07-31T07:56:25;23.30;69.70
23813;DHT22;12087;45.190;5.688;2022-07-31T08:01:48;23.40;69.70
23813;DHT22;12087;45.190;5.688;2022-07-31T08:07:11;23.50;68.70
23813;DHT22;12087;45.190;5.688;2022-07-31T08:12:35;23.60;68.20
23813;DHT22;12087;45.190;5.688;2022-07-31T08:17:59;23.70;68.80
23813;DHT22;12087;45.190;5.688;2022-07-31T08:23:21;23.90;67.60
23813;DHT22;12087;45.190;5.688;2022-07-31T08:28:43;24.00;66.80
23813;DHT22;12087;45.190;5.688;2022-07-31T08:34:08;24.40;65.80
23813;DHT22;12087;45.190;5.688;2022-07-31T08:39:30;24.70;66.00
23813;DHT22;12087;45.190;5.688;2022-07-31T08:44:53;25.20;63.70
23813;DHT22;12087;45.190;5.688;2022-07-31T08:50:16;25.60;62.40
23813;DHT22;12087;45.190;5.688;2022-07-31T08:55:41;25.90;61.60
23813;DHT22;12087;45.190;5.688;2022-07-31T09:01:04;26.20;60.50
23813;DHT22;12087;45.190;5.688;2022-07-31T09:06:28;26.50;62.70
23813;DHT22;12087;45.190;5.688;2022-07-31T09:11:51;26.50;58.90
23813;DHT22;12087;45.190;5.688;2022-07-31T09:17:14;26.70;58.70
23813;DHT22;12087;45.190;5.688;2022-07-31T09:22:39;26.90;59.20
23813;DHT22;12087;45.190;5.688;2022-07-31T09:28:05;27.10;59.70
23813;DHT22;12087;45.190;5.688;2022-07-31T09:33:30;27.40;58.60
23813;DHT22;12087;45.190;5.688;2022-07-31T09:38:54;27.50;59.20
23813;DHT22;12087;45.190;5.688;2022-07-31T09:44:17;27.70;57.70
23813;DHT22;12087;45.190;5.688;2022-07-31T09:49:39;27.90;56.90
23813;DHT22;12087;45.190;5.688;2022-07-31T09:55:11;28.20;58.50
23813;DHT22;12087;45.190;5.688;2022-07-31T10:00:36;28.40;59.20
23813;DHT22;12087;45.190;5.688;2022-07-31T10:05:58;28.70;57.50
23813;DHT22;12087;45.190;5.688;2022-07-31T10:11:24;28.90;57.40
23813;DHT22;12087;45.190;5.688;2022-07-31T10:16:47;29.10;58.80
23813;DHT22;12087;45.190;5.688;2022-07-31T10:22:17;29.40;56.50
23813;DHT22;12087;45.190;5.688;2022-07-31T10:27:42;29.70;59.70
23813;DHT22;12087;45.190;5.688;2022-07-31T10:33:05;29.90;56.80
23813;DHT22;12087;45.190;5.688;2022-07-31T10:38:30;30.20;55.60
23813;DHT22;12087;45.190;5.688;2022-07-31T10:43:58;30.50;55.10
23813;DHT22;12087;45.190;5.688;2022-07-31T10:49:39;30.70;55.60
23813;DHT22;12087;45.190;5.688;2022-07-31T10:55:14;31.00;52.60
23813;DHT22;12087;45.190;5.688;2022-07-31T11:00:38;31.40;52.70
23813;DHT22;12087;45.190;5.688;2022-07-31T11:06:00;31.70;50.90
23813;DHT22;12087;45.190;5.688;2022-07-31T11:11:30;32.00;49.70
23813;DHT22;12087;45.190;5.688;2022-07-31T11:16:54;32.20;50.60
23813;DHT22;12087;45.190;5.688;2022-07-31T11:22:16;32.60;50.40
23813;DHT22;12087;45.190;5.688;2022-07-31T11:27:39;32.70;47.50
23813;DHT22;12087;45.190;5.688;2022-07-31T11:33:03;32.90;48.20
23813;DHT22;12087;45.190;5.688;2022-07-31T11:38:28;33.10;48.00
23813;DHT22;12087;45.190;5.688;2022-07-31T11:43:51;33.20;46.90
23813;DHT22;12087;45.190;5.688;2022-07-31T11:49:20;33.40;46.70
23813;DHT22;12087;45.190;5.688;2022-07-31T11:54:43;33.80;46.50
23813;DHT22;12087;45.190;5.688;2022-07-31T12:00:10;33.90;45.40
23813;DHT22;12087;45.190;5.688;2022-07-31T12:05:42;34.00;44.70
23813;DHT22;12087;45.190;5.688;2022-07-31T12:11:06;34.40;44.80
23813;DHT22;12087;45.190;5.688;2022-07-31T12:16:38;34.60;44.90
23813;DHT22;12087;45.190;5.688;2022-07-31T12:22:11;34.80;44.60
23813;DHT22;12087;45.190;5.688;2022-07-31T12:27:34;35.00;43.30
23813;DHT22;12087;45.190;5.688;2022-07-31T12:33:03;35.00;43.00
23813;DHT22;12087;45.190;5.688;2022-07-31T12:38:27;35.10;42.90
23813;DHT22;12087;45.190;5.688;2022-07-31T12:43:49;35.00;42.00
23813;DHT22;12087;45.190;5.688;2022-07-31T12:49:12;35.20;42.20
23813;DHT22;12087;45.190;5.688;2022-07-31T12:54:36;35.30;41.00
23813;DHT22;12087;45.190;5.688;2022-07-31T12:59:58;35.30;41.20
23813;DHT22;12087;45.190;5.688;2022-07-31T13:05:21;35.50;41.60
23813;DHT22;12087;45.190;5.688;2022-07-31T13:10:45;35.70;40.80
23813;DHT22;12087;45.190;5.688;2022-07-31T13:16:07;35.70;40.50
23813;DHT22;12087;45.190;5.688;2022-07-31T13:21:30;35.90;41.40
23813;DHT22;12087;45.190;5.688;2022-07-31T13:26:53;35.90;40.00
23813;DHT22;12087;45.190;5.688;2022-07-31T13:32:18;35.80;41.00
23813;DHT22;12087;45.190;5.688;2022-07-31T13:37:40;35.80;39.10
23813;DHT22;12087;45.190;5.688;2022-07-31T13:43:04;35.80;40.70
23813;DHT22;12087;45.190;5.688;2022-07-31T13:48:27;36.00;40.50
23813;DHT22;12087;45.190;5.688;2022-07-31T13:53:49;36.10;40.80
23813;DHT22;12087;45.190;5.688;2022-07-31T13:59:13;36.00;39.90
23813;DHT22;12087;45.190;5.688;2022-07-31T14:04:36;36.00;39.80
23813;DHT22;12087;45.190;5.688;2022-07-31T14:09:58;35.90;39.60
23813;DHT22;12087;45.190;5.688;2022-07-31T14:15:23;35.80;39.90
23813;DHT22;12087;45.190;5.688;2022-07-31T14:20:45;35.80;39.70
23813;DHT22;12087;45.190;5.688;2022-07-31T14:26:07;35.70;40.20
23813;DHT22;12087;45.190;5.688;2022-07-31T14:31:31;35.50;40.50
23813;DHT22;12087;45.190;5.688;2022-07-31T14:36:53;35.40;40.90
23813;DHT22;12087;45.190;5.688;2022-07-31T14:42:15;35.10;41.40
23813;DHT22;12087;45.190;5.688;2022-07-31T14:47:39;35.00;41.10
23813;DHT22;12087;45.190;5.688;2022-07-31T14:53:01;35.00;41.20
23813;DHT22;12087;45.190;5.688;2022-07-31T14:58:23;34.80;42.10
23813;DHT22;12087;45.190;5.688;2022-07-31T15:03:49;34.60;42.60
23813;DHT22;12087;45.190;5.688;2022-07-31T15:09:12;34.40;41.40
23813;DHT22;12087;45.190;5.688;2022-07-31T15:14:34;34.20;42.20
23813;DHT22;12087;45.190;5.688;2022-07-31T15:19:58;34.10;43.40
23813;DHT22;12087;45.190;5.688;2022-07-31T15:25:20;33.80;43.00
23813;DHT22;12087;45.190;5.688;2022-07-31T15:30:42;33.60;42.70
23813;DHT22;12087;45.190;5.688;2022-07-31T15:36:06;33.50;42.90
23813;DHT22;12087;45.190;5.688;2022-07-31T15:41:29;33.40;43.50
23813;DHT22;12087;45.190;5.688;2022-07-31T15:46:51;33.20;43.40
23813;DHT22;12087;45.190;5.688;2022-07-31T15:52:15;33.10;44.20
23813;DHT22;12087;45.190;5.688;2022-07-31T15:57:37;33.00;44.00
23813;DHT22;12087;45.190;5.688;2022-07-31T16:03:00;33.00;44.60
23813;DHT22;12087;45.190;5.688;2022-07-31T16:08:24;32.90;44.00
23813;DHT22;12087;45.190;5.688;2022-07-31T16:13:47;32.80;44.80
23813;DHT22;12087;45.190;5.688;2022-07-31T16:19:09;32.60;44.90
23813;DHT22;12087;45.190;5.688;2022-07-31T16:24:33;32.60;44.90
23813;DHT22;12087;45.190;5.688;2022-07-31T16:29:55;32.40;45.80
23813;DHT22;12087;45.190;5.688;2022-07-31T16:35:18;32.40;45.70
23813;DHT22;12087;45.190;5.688;2022-07-31T16:40:42;32.30;46.00
23813;DHT22;12087;45.190;5.688;2022-07-31T16:46:04;32.30;46.30
23813;DHT22;12087;45.190;5.688;2022-07-31T16:51:26;32.20;46.10
23813;DHT22;12087;45.190;5.688;2022-07-31T16:56:50;32.10;46.50
23813;DHT22;12087;45.190;5.688;2022-07-31T17:02:12;32.00;46.30
23813;DHT22;12087;45.190;5.688;2022-07-31T17:07:36;31.90;46.70
23813;DHT22;12087;45.190;5.688;2022-07-31T17:12:59;31.80;47.30
23813;DHT22;12087;45.190;5.688;2022-07-31T17:18:22;31.70;46.30
23813;DHT22;12087;45.190;5.688;2022-07-31T17:23:45;31.60;46.80
23813;DHT22;12087;45.190;5.688;2022-07-31T17:29:10;31.50;47.70
23813;DHT22;12087;45.190;5.688;2022-07-31T17:34:32;31.40;47.40
23813;DHT22;12087;45.190;5.688;2022-07-31T17:39:55;31.30;47.80
23813;DHT22;12087;45.190;5.688;2022-07-31T17:45:18;31.10;48.90
23813;DHT22;12087;45.190;5.688;2022-07-31T17:50:41;31.00;48.30
23813;DHT22;12087;45.190;5.688;2022-07-31T17:56:03;30.80;48.10
23813;DHT22;12087;45.190;5.688;2022-07-31T18:01:27;30.80;48.90
23813;DHT22;12087;45.190;5.688;2022-07-31T18:06:49;30.70;49.00
23813;DHT22;12087;45.190;5.688;2022-07-31T18:12:12;30.60;48.60
23813;DHT22;12087;45.190;5.688;2022-07-31T18:17:38;30.50;49.60
23813;DHT22;12087;45.190;5.688;2022-07-31T18:23:01;30.40;49.20
23813;DHT22;12087;45.190;5.688;2022-07-31T18:28:23;30.30;49.30
23813;DHT22;12087;45.190;5.688;2022-07-31T18:33:47;30.20;49.00
23813;DHT22;12087;45.190;5.688;2022-07-31T18:39:09;30.10;48.90
23813;DHT22;12087;45.190;5.688;2022-07-31T18:44:31;30.10;49.10
23813;DHT22;12087;45.190;5.688;2022-07-31T18:49:56;30.00;49.20
23813;DHT22;12087;45.190;5.688;2022-07-31T18:55:18;29.90;49.60
23813;DHT22;12087;45.190;5.688;2022-07-31T19:00:40;29.80;49.30
23813;DHT22;12087;45.190;5.688;2022-07-31T19:06:04;29.80;50.00
23813;DHT22;12087;45.190;5.688;2022-07-31T19:11:27;29.70;49.90
23813;DHT22;12087;45.190;5.688;2022-07-31T19:16:49;29.60;49.70
23813;DHT22;12087;45.190;5.688;2022-07-31T19:22:12;29.50;50.10
23813;DHT22;12087;45.190;5.688;2022-07-31T19:27:35;29.50;50.50
23813;DHT22;12087;45.190;5.688;2022-07-31T19:32:57;29.40;50.80
23813;DHT22;12087;45.190;5.688;2022-07-31T19:38:21;29.20;51.50
23813;DHT22;12087;45.190;5.688;2022-07-31T19:43:43;29.10;51.80
23813;DHT22;12087;45.190;5.688;2022-07-31T19:49:05;29.00;51.90
23813;DHT22;12087;45.190;5.688;2022-07-31T19:54:29;29.00;52.20
23813;DHT22;12087;45.190;5.688;2022-07-31T19:59:51;28.80;53.30
23813;DHT22;12087;45.190;5.688;2022-07-31T20:05:13;28.80;53.40
23813;DHT22;12087;45.190;5.688;2022-07-31T20:10:38;28.70;53.60
23813;DHT22;12087;45.190;5.688;2022-07-31T20:16:01;28.60;53.70
23813;DHT22;12087;45.190;5.688;2022-07-31T20:21:23;28.60;53.40
23813;DHT22;12087;45.190;5.688;2022-07-31T20:26:47;28.40;53.70
23813;DHT22;12087;45.190;5.688;2022-07-31T20:32:09;28.30;54.30
23813;DHT22;12087;45.190;5.688;2022-07-31T20:37:32;28.30;54.70
23813;DHT22;12087;45.190;5.688;2022-07-31T20:42:55;28.20;55.00
23813;DHT22;12087;45.190;5.688;2022-07-31T20:48:18;28.20;55.10
23813;DHT22;12087;45.190;5.688;2022-07-31T20:53:41;28.10;55.30
23813;DHT22;12087;45.190;5.688;2022-07-31T20:59:05;28.10;55.20
23813;DHT22;12087;45.190;5.688;2022-07-31T21:04:27;28.00;55.80
23813;DHT22;12087;45.190;5.688;2022-07-31T21:09:50;27.90;56.00
23813;DHT22;12087;45.190;5.688;2022-07-31T21:15:14;27.80;56.00
23813;DHT22;12087;45.190;5.688;2022-07-31T21:20:36;27.80;55.60
23813;DHT22;12087;45.190;5.688;2022-07-31T21:25:59;27.80;55.90
23813;DHT22;12087;45.190;5.688;2022-07-31T21:31:24;27.70;56.80
23813;DHT22;12087;45.190;5.688;2022-07-31T21:36:46;27.70;56.30
23813;DHT22;12087;45.190;5.688;2022-07-31T21:42:10;27.70;56.60
23813;DHT22;12087;45.190;5.688;2022-07-31T21:47:40;27.60;57.00
23813;DHT22;12087;45.190;5.688;2022-07-31T21:53:02;27.60;56.50
23813;DHT22;12087;45.190;5.688;2022-07-31T21:58:25;27.60;56.70
23813;DHT22;12087;45.190;5.688;2022-07-31T22:03:48;27.50;57.10
23813;DHT22;12087;45.190;5.688;2022-07-31T22:09:10;27.50;57.30
23813;DHT22;12087;45.190;5.688;2022-07-31T22:14:33;27.40;57.30
23813;DHT22;12087;45.190;5.688;2022-07-31T22:19:57;27.30;57.80
23813;DHT22;12087;45.190;5.688;2022-07-31T22:25:19;27.20;57.80
23813;DHT22;12087;45.190;5.688;2022-07-31T22:30:42;27.10;58.10
23813;DHT22;12087;45.190;5.688;2022-07-31T22:36:07;27.10;58.30
23813;DHT22;12087;45.190;5.688;2022-07-31T22:41:29;27.00;58.30
23813;DHT22;12087;45.190;5.688;2022-07-31T22:46:51;27.00;58.50
23813;DHT22;12087;45.190;5.688;2022-07-31T22:52:16;26.90;58.70
23813;DHT22;12087;45.190;5.688;2022-07-31T22:57:39;26.90;59.40
23813;DHT22;12087;45.190;5.688;2022-07-31T23:03:03;26.80;59.20
23813;DHT22;12087;45.190;5.688;2022-07-31T23:08:27;26.80;59.10
23813;DHT22;12087;45.190;5.688;2022-07-31T23:13:49;26.70;59.30
23813;DHT22;12087;45.190;5.688;2022-07-31T23:19:11;26.70;59.30
23813;DHT22;12087;45.190;5.688;2022-07-31T23:24:35;26.60;59.50
23813;DHT22;12087;45.190;5.688;2022-07-31T23:29:57;26.50;59.80
23813;DHT22;12087;45.190;5.688;2022-07-31T23:35:20;26.40;60.00
23813;DHT22;12087;45.190;5.688;2022-07-31T23:40:43;26.40;60.60
23813;DHT22;12087;45.190;5.688;2022-07-31T23:46:05;26.30;60.60
23813;DHT22;12087;45.190;5.688;2022-07-31T23:51:28;26.30;60.80
23813;DHT22;12087;45.190;5.688;2022-07-31T23:56:51;26.20;61.30
